createdAt,value
2022-08-17T00:00:44.061Z,19.05
2022-08-17T00:03:22.274Z,19.13
2022-08-17T00:06:07.736Z,19.18
2022-08-17T00:08:42.012Z,19.18
2022-08-17T00:11:14.438Z,19.15
2022-08-17T00:13:55.930Z,19.14
2022-08-17T00:16:56.436Z,19.14
2022-08-17T00:19:23.140Z,19.10
2022-08-17T00:22:32.214Z,19.09
2022-08-17T00:24:44.107Z,19.09
2022-08-17T00:27:12.266Z,19.08
2022-08-17T00:29:40.663Z,19.09
2022-08-17T00:33:14.716Z,19.11
2022-08-17T00:34:56.972Z,19.12
2022-08-17T00:37:25.079Z,19.13
2022-08-17T00:39:53.220Z,19.13
2022-08-17T00:42:21.414Z,19.16
2022-08-17T00:44:49.656Z,19.20
2022-08-17T00:47:17.932Z,19.21
2022-08-17T00:49:46.210Z,19.23
2022-08-17T00:52:20.354Z,19.27
2022-08-17T00:54:51.900Z,19.32
2022-08-17T00:57:36.852Z,19.35
2022-08-17T01:00:32.763Z,19.39
2022-08-17T01:03:08.610Z,19.39
2022-08-17T01:05:42.239Z,19.40
2022-08-17T01:08:14.032Z,19.38
2022-08-17T01:10:59.865Z,19.37
2022-08-17T01:13:41.244Z,19.36
2022-08-17T01:16:19.863Z,19.36
2022-08-17T01:18:50.971Z,19.37
2022-08-17T01:21:31.463Z,19.36
2022-08-17T01:24:00.692Z,19.35
2022-08-17T01:26:31.659Z,19.33
2022-08-17T01:29:01.648Z,19.29
2022-08-17T01:31:46.119Z,19.27
2022-08-17T01:34:16.395Z,19.23
2022-08-17T01:36:47.383Z,19.20
2022-08-17T01:39:25.100Z,19.16
2022-08-17T01:41:58.734Z,19.14
2022-08-17T01:44:28.162Z,19.14
2022-08-17T01:46:56.319Z,19.16
2022-08-17T01:49:24.439Z,19.16
2022-08-17T01:51:52.664Z,19.16
2022-08-17T01:54:22.262Z,19.16
2022-08-17T01:56:52.284Z,19.14
2022-08-17T01:59:20.626Z,19.13
2022-08-17T02:01:49.359Z,19.11
2022-08-17T02:04:17.507Z,19.10
2022-08-17T02:06:53.715Z,19.09
2022-08-17T02:09:26.284Z,19.09
2022-08-17T02:12:39.469Z,19.08
2022-08-17T02:14:51.051Z,19.06
2022-08-17T02:17:19.179Z,19.03
2022-08-17T02:19:47.326Z,19.01
2022-08-17T02:22:15.874Z,19.01
2022-08-17T02:24:59.964Z,18.99
2022-08-17T02:27:30.644Z,18.97
2022-08-17T02:29:58.913Z,18.99
2022-08-17T02:32:28.606Z,19.02
2022-08-17T02:34:58.101Z,19.03
2022-08-17T02:37:28.403Z,19.02
2022-08-17T02:39:58.679Z,19.00
2022-08-17T02:42:34.315Z,19.07
2022-08-17T02:45:05.972Z,19.11
2022-08-17T02:47:34.963Z,19.11
2022-08-17T02:50:04.388Z,19.13
2022-08-17T02:52:43.238Z,19.12
2022-08-17T02:55:20.937Z,19.12
2022-08-17T02:57:50.026Z,19.10
2022-08-17T03:00:29.151Z,19.11
2022-08-17T03:02:57.585Z,19.11
2022-08-17T03:05:27.966Z,19.10
2022-08-17T03:07:56.871Z,19.12
2022-08-17T03:10:25.679Z,19.15
2022-08-17T03:12:54.667Z,19.17
2022-08-17T03:15:26.193Z,19.19
2022-08-17T03:17:55.742Z,19.21
2022-08-17T03:20:25.739Z,19.22
2022-08-17T03:22:56.151Z,19.25
2022-08-17T03:25:34.529Z,19.28
2022-08-17T03:28:04.317Z,19.33
2022-08-17T03:30:33.275Z,19.37
2022-08-17T03:33:04.241Z,19.39
2022-08-17T03:35:35.018Z,19.41
2022-08-17T03:38:04.262Z,19.40
2022-08-17T03:40:34.585Z,19.40
2022-08-17T03:43:22.876Z,19.41
2022-08-17T03:46:19.277Z,19.44
2022-08-17T03:49:14.425Z,19.48
2022-08-17T03:52:01.519Z,19.50
2022-08-17T03:54:48.520Z,19.56
2022-08-17T03:57:16.783Z,19.59
2022-08-17T03:59:45.340Z,19.60
2022-08-17T04:02:21.720Z,19.65
2022-08-17T04:04:54.329Z,19.69
2022-08-17T04:07:24.913Z,19.70
2022-08-17T04:09:53.242Z,19.73
2022-08-17T04:12:23.758Z,19.78
2022-08-17T04:14:54.661Z,19.85
2022-08-17T04:17:26.426Z,19.89
2022-08-17T04:19:55.548Z,19.93
2022-08-17T04:22:30.461Z,19.97
2022-08-17T04:25:15.510Z,20.03
2022-08-17T04:27:43.624Z,20.10
2022-08-17T04:30:13.433Z,20.17
2022-08-17T04:33:10.488Z,20.21
2022-08-17T04:35:50.271Z,20.22
2022-08-17T04:38:22.392Z,20.24
2022-08-17T04:41:10.985Z,20.28
2022-08-17T04:43:40.980Z,20.31
2022-08-17T04:46:12.568Z,20.31
2022-08-17T04:48:43.706Z,20.30
2022-08-17T04:51:20.138Z,20.29
2022-08-17T04:53:53.975Z,20.29
2022-08-17T04:56:26.069Z,20.34
2022-08-17T04:58:58.269Z,20.35
2022-08-17T05:01:29.673Z,20.39
2022-08-17T05:04:00.315Z,20.43
2022-08-17T05:06:49.746Z,20.49
2022-08-17T05:09:18.815Z,20.55
2022-08-17T05:11:47.441Z,20.61
2022-08-17T05:14:15.692Z,20.66
2022-08-17T05:16:46.006Z,20.72
2022-08-17T05:19:14.203Z,20.79
2022-08-17T05:21:42.345Z,20.83
2022-08-17T05:24:16.743Z,20.96
2022-08-17T05:27:03.853Z,21.11
2022-08-17T05:29:35.981Z,21.28
2022-08-17T05:32:39.173Z,21.37
2022-08-17T05:35:00.636Z,21.43
2022-08-17T05:37:29.004Z,21.53
2022-08-17T05:39:57.273Z,21.59
2022-08-17T05:42:25.466Z,21.59
2022-08-17T05:44:58.075Z,21.61
2022-08-17T05:47:27.448Z,21.67
2022-08-17T05:49:55.716Z,21.73
2022-08-17T05:52:38.764Z,21.85
2022-08-17T05:55:14.551Z,22.01
2022-08-17T05:58:00.471Z,22.15
2022-08-17T06:00:42.171Z,22.32
2022-08-17T06:03:25.177Z,22.44
2022-08-17T06:06:22.387Z,22.40
2022-08-17T06:09:15.090Z,22.43
2022-08-17T06:11:54.242Z,22.60
2022-08-17T06:15:02.050Z,22.79
2022-08-17T06:17:31.237Z,22.93
2022-08-17T06:20:06.565Z,23.07
2022-08-17T06:22:46.210Z,23.23
2022-08-17T06:25:38.947Z,23.42
2022-08-17T06:28:16.414Z,23.67
2022-08-17T06:30:59.484Z,23.79
2022-08-17T06:33:34.512Z,23.85
2022-08-17T06:36:17.676Z,23.83
2022-08-17T06:38:50.002Z,23.95
2022-08-17T06:41:45.742Z,24.10
2022-08-17T06:44:50.902Z,24.19
2022-08-17T06:47:29.573Z,24.20
2022-08-17T06:50:07.759Z,24.16
2022-08-17T06:52:50.124Z,24.08
2022-08-17T06:55:34.439Z,23.97
2022-08-17T06:58:15.969Z,23.86
2022-08-17T07:00:47.880Z,23.80
2022-08-17T07:03:55.833Z,23.81
2022-08-17T07:06:38.617Z,23.80
2022-08-17T07:09:17.490Z,23.74
2022-08-17T07:11:53.285Z,23.70
2022-08-17T07:14:39.688Z,23.69
2022-08-17T07:17:11.216Z,23.65
2022-08-17T07:19:41.442Z,23.65
2022-08-17T07:22:21.320Z,23.67
2022-08-17T07:24:57.385Z,23.69
2022-08-17T07:27:38.207Z,23.69
2022-08-17T07:30:10.291Z,23.69
2022-08-17T07:32:47.621Z,23.75
2022-08-17T07:35:22.237Z,23.84
2022-08-17T07:38:25.859Z,23.88
2022-08-17T07:41:05.161Z,23.90
2022-08-17T07:43:39.513Z,23.94
2022-08-17T07:46:37.001Z,23.98
2022-08-17T07:49:08.459Z,23.97
2022-08-17T07:51:40.954Z,23.96
2022-08-17T07:54:22.758Z,23.91
2022-08-17T07:57:29.985Z,23.90
2022-08-17T08:00:01.659Z,23.85
2022-08-17T08:02:42.402Z,23.82
2022-08-17T08:05:13.368Z,23.84
2022-08-17T08:08:22.648Z,23.90
2022-08-17T08:11:25.268Z,23.94
2022-08-17T08:13:53.435Z,23.96
2022-08-17T08:16:25.911Z,24.22
2022-08-17T08:18:58.126Z,24.90
2022-08-17T08:21:44.966Z,25.47
2022-08-17T08:24:43.870Z,25.78
2022-08-17T08:27:58.084Z,25.98
2022-08-17T08:30:28.361Z,25.99
2022-08-17T08:33:24.121Z,25.70
2022-08-17T08:36:00.127Z,25.44
2022-08-17T08:38:49.698Z,25.22
2022-08-17T08:41:36.032Z,24.89
2022-08-17T08:45:00.064Z,24.62
2022-08-17T08:47:41.687Z,24.41
2022-08-17T08:50:37.620Z,24.28
2022-08-17T08:53:21.471Z,24.27
2022-08-17T08:55:55.967Z,24.50
2022-08-17T08:58:50.885Z,24.66
2022-08-17T09:01:30.284Z,24.71
2022-08-17T09:04:24.108Z,24.93
2022-08-17T09:07:31.459Z,25.25
2022-08-17T09:10:03.675Z,25.48
2022-08-17T09:12:31.744Z,26.13
2022-08-17T09:15:12.995Z,26.50
2022-08-17T09:18:14.580Z,26.74
2022-08-17T09:21:00.509Z,26.70
2022-08-17T09:23:36.442Z,26.68
2022-08-17T09:26:24.335Z,26.59
2022-08-17T09:28:59.200Z,26.38
2022-08-17T09:31:49.269Z,26.03
2022-08-17T09:34:28.185Z,25.69
2022-08-17T09:37:20.740Z,25.37
2022-08-17T09:40:23.122Z,25.07
2022-08-17T09:43:10.250Z,25.02
2022-08-17T09:46:04.237Z,25.37
2022-08-17T09:48:36.107Z,25.98
2022-08-17T09:51:09.773Z,26.50
2022-08-17T09:53:39.780Z,26.78
2022-08-17T09:56:41.064Z,27.07
2022-08-17T09:59:18.074Z,27.85
2022-08-17T10:02:25.328Z,28.64
2022-08-17T10:05:05.516Z,29.42
2022-08-17T10:08:28.833Z,29.27
2022-08-17T10:10:59.056Z,28.81
2022-08-17T10:13:28.189Z,28.90
2022-08-17T10:16:24.268Z,28.71
2022-08-17T10:19:05.424Z,28.60
2022-08-17T10:22:00.976Z,29.16
2022-08-17T10:25:22.749Z,29.63
2022-08-17T10:27:58.311Z,29.98
2022-08-17T10:30:31.577Z,29.81
2022-08-17T10:33:15.742Z,30.21
2022-08-17T10:35:59.126Z,30.70
2022-08-17T10:38:39.359Z,31.27
2022-08-17T10:41:24.301Z,31.45
2022-08-17T10:44:39.722Z,31.12
2022-08-17T10:47:15.472Z,30.84
2022-08-17T10:49:52.296Z,30.37
2022-08-17T10:52:20.394Z,29.95
2022-08-17T10:55:16.333Z,30.38
2022-08-17T10:57:50.360Z,30.25
2022-08-17T11:00:25.608Z,30.88
2022-08-17T11:02:58.050Z,30.95
2022-08-17T11:05:43.754Z,30.40
2022-08-17T11:08:40.073Z,29.93
2022-08-17T11:11:36.045Z,30.38
2022-08-17T11:14:47.459Z,30.89
2022-08-17T11:17:50.898Z,30.99
2022-08-17T11:20:38.872Z,30.84
2022-08-17T11:23:31.600Z,30.41
2022-08-17T11:26:04.536Z,30.78
2022-08-17T11:28:45.499Z,31.49
2022-08-17T11:31:38.417Z,32.13
2022-08-17T11:34:26.631Z,32.43
2022-08-17T11:37:21.076Z,32.05
2022-08-17T11:40:04.838Z,31.87
2022-08-17T11:43:08.333Z,30.91
2022-08-17T11:45:45.448Z,30.45
2022-08-17T11:48:37.050Z,30.95
2022-08-17T11:51:33.930Z,31.72
2022-08-17T11:54:30.529Z,31.92
2022-08-17T11:56:51.938Z,32.14
2022-08-17T11:59:44.958Z,32.33
2022-08-17T12:02:31.631Z,32.51
2022-08-17T12:05:14.451Z,32.85
2022-08-17T12:08:21.762Z,32.81
2022-08-17T12:10:59.639Z,33.14
2022-08-17T12:13:38.737Z,33.35
2022-08-17T12:16:10.127Z,33.39
2022-08-17T12:18:42.147Z,33.47
2022-08-17T12:21:42.633Z,33.32
2022-08-17T12:24:35.763Z,33.40
2022-08-17T12:27:06.972Z,33.46
2022-08-17T12:29:38.713Z,33.47
2022-08-17T12:32:17.686Z,32.99
2022-08-17T12:34:47.845Z,33.05
2022-08-17T12:37:31.224Z,33.22
2022-08-17T12:40:04.851Z,33.22
2022-08-17T12:42:37.635Z,33.01
2022-08-17T12:45:23.938Z,32.71
2022-08-17T12:48:23.385Z,32.67
2022-08-17T12:50:59.002Z,32.45
2022-08-17T12:53:31.845Z,32.69
2022-08-17T12:56:00.525Z,32.99
2022-08-17T12:58:32.765Z,32.91
2022-08-17T13:01:06.238Z,32.84
2022-08-17T13:03:40.790Z,33.14
2022-08-17T13:06:13.160Z,33.30
2022-08-17T13:08:50.898Z,33.50
2022-08-17T13:11:24.928Z,33.09
2022-08-17T13:13:56.992Z,32.62
2022-08-17T13:16:33.606Z,32.70
2022-08-17T13:19:15.269Z,32.81
2022-08-17T13:21:52.813Z,32.81
2022-08-17T13:24:26.009Z,32.58
2022-08-17T13:27:13.224Z,32.15
2022-08-17T13:29:53.895Z,31.71
2022-08-17T13:32:36.452Z,31.62
2022-08-17T13:35:33.422Z,31.18
2022-08-17T13:38:38.111Z,31.00
2022-08-17T13:41:07.625Z,30.47
2022-08-17T13:43:45.290Z,30.31
2022-08-17T13:46:25.428Z,30.65
2022-08-17T13:49:21.170Z,30.93
2022-08-17T13:51:52.232Z,30.93
2022-08-17T13:54:35.167Z,31.18
2022-08-17T13:57:06.422Z,30.98
2022-08-17T13:59:54.412Z,30.99
2022-08-17T14:02:26.100Z,31.21
2022-08-17T14:04:58.727Z,31.36
2022-08-17T14:07:32.227Z,31.48
2022-08-17T14:10:08.381Z,31.55
2022-08-17T14:12:40.440Z,31.49
2022-08-17T14:15:16.223Z,31.24
2022-08-17T14:17:44.886Z,31.39
2022-08-17T14:20:13.906Z,31.41
2022-08-17T14:22:54.057Z,31.34
2022-08-17T14:25:26.891Z,31.24
2022-08-17T14:27:59.834Z,31.06
2022-08-17T14:30:29.870Z,30.91
2022-08-17T14:32:59.358Z,30.88
2022-08-17T14:35:34.595Z,30.94
2022-08-17T14:38:06.223Z,30.92
2022-08-17T14:40:36.341Z,30.73
2022-08-17T14:43:05.659Z,30.52
2022-08-17T14:45:33.769Z,30.23
2022-08-17T14:48:08.022Z,29.91
2022-08-17T14:50:41.890Z,29.68
2022-08-17T14:53:13.942Z,29.42
2022-08-17T14:55:43.741Z,29.16
2022-08-17T14:58:15.332Z,29.06
2022-08-17T15:00:53.206Z,29.14
2022-08-17T15:03:21.654Z,29.18
2022-08-17T15:05:49.853Z,29.22
2022-08-17T15:08:19.891Z,29.40
2022-08-17T15:10:54.188Z,29.57
2022-08-17T15:13:26.115Z,29.70
2022-08-17T15:15:54.466Z,29.71
2022-08-17T15:18:25.177Z,29.71
2022-08-17T15:20:54.990Z,29.55
2022-08-17T15:23:29.164Z,29.28
2022-08-17T15:25:57.944Z,29.04
2022-08-17T15:28:26.545Z,28.74
2022-08-17T15:30:55.366Z,28.41
2022-08-17T15:33:30.771Z,28.05
2022-08-17T15:36:13.700Z,27.72
2022-08-17T15:38:46.277Z,27.40
2022-08-17T15:41:18.635Z,27.13
2022-08-17T15:43:50.260Z,26.91
2022-08-17T15:46:21.187Z,26.68
2022-08-17T15:48:52.112Z,26.46
2022-08-17T15:51:24.281Z,26.25
2022-08-17T15:54:19.368Z,26.09
2022-08-17T15:56:51.261Z,25.91
2022-08-17T15:59:19.604Z,25.76
2022-08-17T16:03:01.456Z,25.66
2022-08-17T16:04:45.062Z,25.58
2022-08-17T16:07:26.483Z,25.31
2022-08-17T16:09:56.453Z,24.68
2022-08-17T16:12:25.293Z,24.17
2022-08-17T16:14:56.887Z,23.77
2022-08-17T16:17:38.555Z,23.45
2022-08-17T16:20:09.737Z,23.26
2022-08-17T16:22:50.606Z,23.10
2022-08-17T16:25:53.110Z,22.97
2022-08-17T16:28:16.751Z,22.88
2022-08-17T16:30:45.767Z,22.80
2022-08-17T16:33:15.325Z,22.77
2022-08-17T16:35:43.510Z,22.74
2022-08-17T16:38:12.648Z,22.71
2022-08-17T16:40:42.989Z,22.71
2022-08-17T16:43:12.152Z,22.74
2022-08-17T16:45:41.208Z,22.77
2022-08-17T16:48:09.869Z,22.80
2022-08-17T16:50:38.225Z,22.79
2022-08-17T16:53:17.256Z,22.63
2022-08-17T16:55:52.038Z,22.74
2022-08-17T16:58:20.476Z,22.75
2022-08-17T17:00:48.908Z,22.74
2022-08-17T17:03:24.988Z,22.72
2022-08-17T17:06:16.440Z,22.69
2022-08-17T17:08:56.303Z,22.63
2022-08-17T17:11:44.638Z,22.60
2022-08-17T17:14:31.868Z,22.55
2022-08-17T17:17:07.187Z,22.48
2022-08-17T17:19:50.887Z,22.39
2022-08-17T17:22:22.134Z,22.30
2022-08-17T17:25:18.075Z,22.18
2022-08-17T17:28:15.192Z,22.06
2022-08-17T17:30:51.949Z,21.96
2022-08-17T17:33:27.409Z,21.87
2022-08-17T17:36:08.488Z,21.77
2022-08-17T17:38:45.855Z,21.73
2022-08-17T17:41:26.321Z,21.71
2022-08-17T17:44:03.384Z,21.72
2022-08-17T17:46:37.561Z,21.71
2022-08-17T17:49:11.307Z,21.63
2022-08-17T17:51:55.722Z,21.55
2022-08-17T17:55:13.300Z,21.50
2022-08-17T17:57:55.916Z,21.42
2022-08-17T18:00:35.027Z,21.38
2022-08-17T18:03:35.567Z,21.38
2022-08-17T18:06:34.158Z,21.42
2022-08-17T18:09:19.458Z,21.44
2022-08-17T18:12:23.937Z,21.45
2022-08-17T18:15:08.579Z,21.47
2022-08-17T18:17:36.839Z,21.47
2022-08-17T18:20:07.207Z,21.45
2022-08-17T18:22:35.404Z,21.42
2022-08-17T18:25:45.110Z,21.41
2022-08-17T18:28:31.001Z,21.42
2022-08-17T18:31:18.835Z,21.43
2022-08-17T18:33:50.849Z,21.43
2022-08-17T18:36:33.155Z,21.41
2022-08-17T18:39:17.532Z,21.38
2022-08-17T18:41:49.094Z,21.33
2022-08-17T18:44:43.115Z,21.29
2022-08-17T18:47:26.846Z,21.28
2022-08-17T18:49:59.364Z,21.23
2022-08-17T18:52:29.044Z,21.21
2022-08-17T18:55:13.067Z,21.16
2022-08-17T18:57:45.418Z,21.13
2022-08-17T19:00:18.423Z,21.08
2022-08-17T19:02:56.339Z,21.07
2022-08-17T19:05:36.837Z,21.05
2022-08-17T19:08:29.659Z,21.03
2022-08-17T19:11:01.665Z,21.01
2022-08-17T19:13:38.853Z,21.00
2022-08-17T19:16:21.863Z,20.97
2022-08-17T19:19:02.846Z,20.91
2022-08-17T19:21:36.554Z,20.91
2022-08-17T19:24:26.615Z,20.88
2022-08-17T19:27:16.110Z,20.87
2022-08-17T19:30:07.494Z,20.84
2022-08-17T19:32:36.269Z,20.83
2022-08-17T19:35:07.642Z,20.84
2022-08-17T19:37:35.710Z,20.87
2022-08-17T19:40:52.351Z,20.89
2022-08-17T19:43:21.072Z,20.89
2022-08-17T19:46:06.187Z,20.87
2022-08-17T19:48:45.731Z,20.84
2022-08-17T19:51:31.963Z,20.82
2022-08-17T19:54:25.722Z,20.78
2022-08-17T19:57:01.961Z,20.76
2022-08-17T19:59:48.389Z,20.72
2022-08-17T20:02:33.743Z,20.68
2022-08-17T20:05:15.999Z,20.65
2022-08-17T20:07:51.383Z,20.62
2022-08-17T20:10:34.375Z,20.59
2022-08-17T20:13:09.455Z,20.57
2022-08-17T20:15:42.137Z,20.58
2022-08-17T20:18:37.853Z,20.57
2022-08-17T20:21:22.051Z,20.58
2022-08-17T20:24:06.371Z,20.60
2022-08-17T20:26:58.954Z,20.61
2022-08-17T20:29:40.300Z,20.61
2022-08-17T20:32:18.995Z,20.59
2022-08-17T20:34:48.061Z,20.54
2022-08-17T20:37:16.112Z,20.49
2022-08-17T20:40:06.581Z,20.46
2022-08-17T20:42:36.642Z,20.43
2022-08-17T20:45:26.542Z,20.39
2022-08-17T20:48:33.353Z,20.37
2022-08-17T20:50:52.648Z,20.34
2022-08-17T20:53:49.451Z,20.33
2022-08-17T20:56:45.112Z,20.32
2022-08-17T20:59:30.589Z,20.32
2022-08-17T21:02:17.540Z,20.30
2022-08-17T21:04:50.078Z,20.29
2022-08-17T21:07:24.180Z,20.27
2022-08-17T21:09:52.862Z,20.24
2022-08-17T21:13:08.281Z,20.22
2022-08-17T21:15:52.602Z,20.16
2022-08-17T21:18:38.972Z,20.14
2022-08-17T21:21:59.510Z,20.12
2022-08-17T21:24:57.876Z,20.09
2022-08-17T21:27:53.833Z,20.04
2022-08-17T21:30:27.913Z,20.02
2022-08-17T21:33:12.272Z,19.98
2022-08-17T21:36:04.854Z,19.96
2022-08-17T21:39:01.293Z,19.95
2022-08-17T21:41:33.899Z,19.94
2022-08-17T21:44:37.020Z,19.94
2022-08-17T21:47:14.765Z,19.93
2022-08-17T21:49:43.770Z,19.90
2022-08-17T21:52:17.836Z,19.90
2022-08-17T21:54:58.340Z,19.90
2022-08-17T21:57:29.046Z,19.90
2022-08-17T22:00:02.760Z,19.91
2022-08-17T22:02:41.968Z,19.91
2022-08-17T22:05:14.737Z,19.90
2022-08-17T22:07:51.047Z,19.89
2022-08-17T22:11:03.283Z,19.87
2022-08-17T22:13:31.564Z,19.84
2022-08-17T22:16:15.448Z,19.82
2022-08-17T22:18:54.393Z,19.78
2022-08-17T22:21:22.769Z,19.76
2022-08-17T22:24:06.973Z,19.73
2022-08-17T22:27:07.684Z,19.71
2022-08-17T22:29:47.624Z,19.67
2022-08-17T22:32:35.688Z,19.65
2022-08-17T22:35:34.886Z,19.63
2022-08-17T22:38:18.326Z,19.59
2022-08-17T22:40:46.367Z,19.56
2022-08-17T22:43:15.466Z,19.54
2022-08-17T22:45:51.601Z,19.54
2022-08-17T22:48:39.384Z,19.54
2022-08-17T22:51:13.483Z,19.53
2022-08-17T22:54:34.532Z,19.53
2022-08-17T22:57:23.463Z,19.50
2022-08-17T22:59:54.602Z,19.49
2022-08-17T23:02:25.501Z,19.48
2022-08-17T23:05:13.519Z,19.50
2022-08-17T23:07:43.301Z,19.52
2022-08-17T23:10:12.695Z,19.55
2022-08-17T23:12:41.461Z,19.58
2022-08-17T23:15:14.472Z,19.62
2022-08-17T23:17:45.361Z,19.65
2022-08-17T23:20:16.305Z,19.69
2022-08-17T23:22:51.522Z,19.73
2022-08-17T23:25:33.597Z,19.76
2022-08-17T23:28:04.823Z,19.79
2022-08-17T23:30:37.114Z,19.79
2022-08-17T23:33:14.456Z,19.79
2022-08-17T23:35:44.187Z,19.77
2022-08-17T23:38:13.196Z,19.72
2022-08-17T23:40:41.337Z,19.69
2022-08-17T23:43:25.306Z,19.65
2022-08-17T23:45:55.162Z,19.62
2022-08-17T23:48:27.827Z,19.58
2022-08-17T23:51:16.757Z,19.54
2022-08-17T23:53:48.358Z,19.49
2022-08-17T23:56:19.634Z,19.46
2022-08-17T23:58:48.273Z,19.43
